sensor_id;sensor_type;location;lat;lon;timestamp;temperature;humidity
75210;DHT22;63796;53.136;14.882;2023-02-02T00:01:29;5.10;99.90
75210;DHT22;63796;53.136;14.882;2023-02-02T00:03:57;5.10;99.90
75210;DHT22;63796;53.136;14.882;2023-02-02T00:06:25;5.10;99.90
75210;DHT22;63796;53.136;14.882;2023-02-02T00:08:57;5.00;99.90
75210;DHT22;63796;53.136;14.882;2023-02-02T00:11:26;4.90;99.90
75210;DHT22;63796;53.136;14.882;2023-02-02T00:13:54;4.70;99.90
75210;DHT22;63796;53.136;14.882;2023-02-02T00:18:58;4.30;99.90
75210;DHT22;63796;53.136;14.882;2023-02-02T00:21:28;4.30;99.90
75210;DHT22;63796;53.136;14.882;2023-02-02T00:23:55;4.30;99.90
75210;DHT22;63796;53.136;14.882;2023-02-02T00:26:23;4.30;99.90
75210;DHT22;63796;53.136;14.882;2023-02-02T00:28:51;4.40;99.90
75210;DHT22;63796;53.136;14.882;2023-02-02T00:31:18;4.40;99.90
75210;DHT22;63796;53.136;14.882;2023-02-02T00:33:46;4.40;99.90
75210;DHT22;63796;53.136;14.882;2023-02-02T00:36:15;4.40;99.90
75210;DHT22;63796;53.136;14.882;2023-02-02T00:38:43;4.30;99.90
75210;DHT22;63796;53.136;14.882;2023-02-02T00:41:10;4.30;99.90
75210;DHT22;63796;53.136;14.882;2023-02-02T00:43:37;4.30;99.90
75210;DHT22;63796;53.136;14.882;2023-02-02T00:46:05;4.30;99.90
75210;DHT22;63796;53.136;14.882;2023-02-02T00:48:39;4.20;99.90
75210;DHT22;63796;53.136;14.882;2023-02-02T00:51:06;4.20;99.90
75210;DHT22;63796;53.136;14.882;2023-02-02T00:53:33;4.20;99.90
75210;DHT22;63796;53.136;14.882;2023-02-02T00:56:01;4.20;99.90
75210;DHT22;63796;53.136;14.882;2023-02-02T00:58:28;4.20;99.90
75210;DHT22;63796;53.136;14.882;2023-02-02T01:00:55;4.20;99.90
75210;DHT22;63796;53.136;14.882;2023-02-02T01:03:22;4.20;99.90
75210;DHT22;63796;53.136;14.882;2023-02-02T01:05:49;4.10;99.90
75210;DHT22;63796;53.136;14.882;2023-02-02T01:08:17;4.10;99.90
75210;DHT22;63796;53.136;14.882;2023-02-02T01:10:45;4.10;99.90
75210;DHT22;63796;53.136;14.882;2023-02-02T01:13:12;4.10;99.90
75210;DHT22;63796;53.136;14.882;2023-02-02T01:15:39;4.00;99.90
75210;DHT22;63796;53.136;14.882;2023-02-02T01:18:06;4.00;99.90
75210;DHT22;63796;53.136;14.882;2023-02-02T01:20:33;4.10;99.90
75210;DHT22;63796;53.136;14.882;2023-02-02T01:23:01;4.10;99.90
75210;DHT22;63796;53.136;14.882;2023-02-02T01:25:28;4.10;99.90
75210;DHT22;63796;53.136;14.882;2023-02-02T01:27:56;4.10;99.90
75210;DHT22;63796;53.136;14.882;2023-02-02T01:30:23;4.20;99.90
75210;DHT22;63796;53.136;14.882;2023-02-02T01:32:50;4.10;99.90
75210;DHT22;63796;53.136;14.882;2023-02-02T01:35:17;4.20;99.90
75210;DHT22;63796;53.136;14.882;2023-02-02T01:37:44;4.20;99.90
75210;DHT22;63796;53.136;14.882;2023-02-02T01:40:12;4.20;99.90
75210;DHT22;63796;53.136;14.882;2023-02-02T01:42:39;4.20;99.90
75210;DHT22;63796;53.136;14.882;2023-02-02T01:45:19;4.30;99.90
75210;DHT22;63796;53.136;14.882;2023-02-02T01:47:53;4.30;99.90
75210;DHT22;63796;53.136;14.882;2023-02-02T01:50:26;4.30;99.90
75210;DHT22;63796;53.136;14.882;2023-02-02T01:52:56;4.30;99.90
75210;DHT22;63796;53.136;14.882;2023-02-02T01:55:26;4.30;99.90
75210;DHT22;63796;53.136;14.882;2023-02-02T01:58:01;4.30;99.90
75210;DHT22;63796;53.136;14.882;2023-02-02T02:00:31;4.30;99.90
75210;DHT22;63796;53.136;14.882;2023-02-02T02:03:00;4.40;99.90
75210;DHT22;63796;53.136;14.882;2023-02-02T02:05:36;4.40;99.90
75210;DHT22;63796;53.136;14.882;2023-02-02T02:08:10;4.40;99.90
75210;DHT22;63796;53.136;14.882;2023-02-02T02:13:38;4.40;99.90
75210;DHT22;63796;53.136;14.882;2023-02-02T02:36:24;4.60;99.90
75210;DHT22;63796;53.136;14.882;2023-02-02T02:39:19;4.50;99.90
75210;DHT22;63796;53.136;14.882;2023-02-02T02:41:49;4.60;99.90
75210;DHT22;63796;53.136;14.882;2023-02-02T02:44:21;4.60;99.90
75210;DHT22;63796;53.136;14.882;2023-02-02T02:46:49;4.60;99.90
75210;DHT22;63796;53.136;14.882;2023-02-02T02:49:17;4.60;99.90
75210;DHT22;63796;53.136;14.882;2023-02-02T02:54:19;4.50;99.90
75210;DHT22;63796;53.136;14.882;2023-02-02T03:08:08;4.70;99.90
75210;DHT22;63796;53.136;14.882;2023-02-02T03:10:41;4.60;99.90
75210;DHT22;63796;53.136;14.882;2023-02-02T03:13:11;4.60;99.90
75210;DHT22;63796;53.136;14.882;2023-02-02T03:15:43;4.60;99.90
75210;DHT22;63796;53.136;14.882;2023-02-02T03:18:11;4.60;99.90
75210;DHT22;63796;53.136;14.882;2023-02-02T03:20:42;4.70;99.90
75210;DHT22;63796;53.136;14.882;2023-02-02T03:23:11;4.60;99.90
75210;DHT22;63796;53.136;14.882;2023-02-02T03:25:39;4.60;99.90
75210;DHT22;63796;53.136;14.882;2023-02-02T03:28:07;4.50;99.90
75210;DHT22;63796;53.136;14.882;2023-02-02T03:30:34;4.50;99.90
75210;DHT22;63796;53.136;14.882;2023-02-02T03:33:03;4.50;99.90
75210;DHT22;63796;53.136;14.882;2023-02-02T03:35:31;4.50;99.90
75210;DHT22;63796;53.136;14.882;2023-02-02T03:37:59;4.50;99.90
75210;DHT22;63796;53.136;14.882;2023-02-02T03:40:26;4.50;99.90
75210;DHT22;63796;53.136;14.882;2023-02-02T03:42:54;4.50;99.90
75210;DHT22;63796;53.136;14.882;2023-02-02T03:45:22;4.60;99.90
75210;DHT22;63796;53.136;14.882;2023-02-02T03:47:50;4.60;99.90
75210;DHT22;63796;53.136;14.882;2023-02-02T03:50:17;4.60;99.90
75210;DHT22;63796;53.136;14.882;2023-02-02T03:52:46;4.50;99.90
75210;DHT22;63796;53.136;14.882;2023-02-02T03:55:14;4.50;99.90
75210;DHT22;63796;53.136;14.882;2023-02-02T03:57:41;4.50;99.90
75210;DHT22;63796;53.136;14.882;2023-02-02T04:00:10;4.50;99.90
75210;DHT22;63796;53.136;14.882;2023-02-02T04:02:38;4.50;99.90
75210;DHT22;63796;53.136;14.882;2023-02-02T04:05:06;4.50;99.90
75210;DHT22;63796;53.136;14.882;2023-02-02T04:07:33;4.50;99.90
75210;DHT22;63796;53.136;14.882;2023-02-02T04:10:00;4.50;99.90
75210;DHT22;63796;53.136;14.882;2023-02-02T04:12:28;4.50;99.90
75210;DHT22;63796;53.136;14.882;2023-02-02T04:14:55;4.50;99.90
75210;DHT22;63796;53.136;14.882;2023-02-02T04:17:22;4.40;99.90
75210;DHT22;63796;53.136;14.882;2023-02-02T04:19:49;4.30;99.90
75210;DHT22;63796;53.136;14.882;2023-02-02T04:22:23;4.40;99.90
75210;DHT22;63796;53.136;14.882;2023-02-02T04:24:51;4.30;99.90
75210;DHT22;63796;53.136;14.882;2023-02-02T04:27:18;4.40;99.90
75210;DHT22;63796;53.136;14.882;2023-02-02T04:29:45;4.40;99.90
75210;DHT22;63796;53.136;14.882;2023-02-02T04:32:13;4.30;99.90
75210;DHT22;63796;53.136;14.882;2023-02-02T04:34:41;4.40;99.90
75210;DHT22;63796;53.136;14.882;2023-02-02T04:37:10;4.40;99.90
75210;DHT22;63796;53.136;14.882;2023-02-02T04:39:37;4.40;99.90
75210;DHT22;63796;53.136;14.882;2023-02-02T04:42:05;4.30;99.90
75210;DHT22;63796;53.136;14.882;2023-02-02T04:44:32;4.30;99.90
75210;DHT22;63796;53.136;14.882;2023-02-02T04:46:59;4.30;99.90
75210;DHT22;63796;53.136;14.882;2023-02-02T04:49:26;4.30;99.90
75210;DHT22;63796;53.136;14.882;2023-02-02T04:51:54;4.30;99.90
75210;DHT22;63796;53.136;14.882;2023-02-02T04:54:21;4.30;99.90
75210;DHT22;63796;53.136;14.882;2023-02-02T04:56:48;4.30;99.90
75210;DHT22;63796;53.136;14.882;2023-02-02T04:59:15;4.20;99.90
75210;DHT22;63796;53.136;14.882;2023-02-02T05:01:42;4.30;99.90
75210;DHT22;63796;53.136;14.882;2023-02-02T05:04:10;4.30;99.90
75210;DHT22;63796;53.136;14.882;2023-02-02T05:06:37;4.30;99.90
75210;DHT22;63796;53.136;14.882;2023-02-02T05:09:05;4.20;99.90
75210;DHT22;63796;53.136;14.882;2023-02-02T05:11:32;4.10;99.90
75210;DHT22;63796;53.136;14.882;2023-02-02T05:13:59;4.10;99.90
75210;DHT22;63796;53.136;14.882;2023-02-02T05:16:26;4.00;99.90
75210;DHT22;63796;53.136;14.882;2023-02-02T05:18:55;4.00;99.90
75210;DHT22;63796;53.136;14.882;2023-02-02T05:21:24;4.20;99.90
75210;DHT22;63796;53.136;14.882;2023-02-02T05:23:51;4.10;99.90
75210;DHT22;63796;53.136;14.882;2023-02-02T05:26:22;4.10;99.90
75210;DHT22;63796;53.136;14.882;2023-02-02T05:28:52;4.00;99.90
75210;DHT22;63796;53.136;14.882;2023-02-02T05:31:19;4.00;99.90
75210;DHT22;63796;53.136;14.882;2023-02-02T05:33:47;3.90;99.90
75210;DHT22;63796;53.136;14.882;2023-02-02T05:36:15;4.00;99.90
75210;DHT22;63796;53.136;14.882;2023-02-02T05:38:42;3.90;99.90
75210;DHT22;63796;53.136;14.882;2023-02-02T05:41:10;3.90;99.90
75210;DHT22;63796;53.136;14.882;2023-02-02T05:43:38;3.90;99.90
75210;DHT22;63796;53.136;14.882;2023-02-02T05:46:05;3.90;99.90
75210;DHT22;63796;53.136;14.882;2023-02-02T05:48:32;3.90;99.90
75210;DHT22;63796;53.136;14.882;2023-02-02T05:51:09;3.90;99.90
75210;DHT22;63796;53.136;14.882;2023-02-02T05:53:52;3.90;99.90
75210;DHT22;63796;53.136;14.882;2023-02-02T05:56:19;3.90;99.90
75210;DHT22;63796;53.136;14.882;2023-02-02T05:58:48;3.80;99.90
75210;DHT22;63796;53.136;14.882;2023-02-02T06:01:16;3.80;99.90
75210;DHT22;63796;53.136;14.882;2023-02-02T06:03:44;3.70;99.90
75210;DHT22;63796;53.136;14.882;2023-02-02T06:06:12;3.80;99.90
75210;DHT22;63796;53.136;14.882;2023-02-02T06:08:39;3.80;99.90
75210;DHT22;63796;53.136;14.882;2023-02-02T06:11:07;3.80;99.90
75210;DHT22;63796;53.136;14.882;2023-02-02T06:13:42;3.80;99.90
75210;DHT22;63796;53.136;14.882;2023-02-02T06:16:12;3.70;99.90
75210;DHT22;63796;53.136;14.882;2023-02-02T06:18:39;3.70;99.90
75210;DHT22;63796;53.136;14.882;2023-02-02T06:21:06;3.60;99.90
75210;DHT22;63796;53.136;14.882;2023-02-02T06:23:33;3.60;99.90
75210;DHT22;63796;53.136;14.882;2023-02-02T06:26:01;3.50;99.90
75210;DHT22;63796;53.136;14.882;2023-02-02T06:28:31;3.50;99.90
75210;DHT22;63796;53.136;14.882;2023-02-02T06:31:02;3.50;99.90
75210;DHT22;63796;53.136;14.882;2023-02-02T06:33:31;3.60;99.90
75210;DHT22;63796;53.136;14.882;2023-02-02T06:35:59;3.70;99.90
75210;DHT22;63796;53.136;14.882;2023-02-02T06:38:27;3.70;99.90
75210;DHT22;63796;53.136;14.882;2023-02-02T06:40:57;3.70;99.90
75210;DHT22;63796;53.136;14.882;2023-02-02T06:43:25;3.60;99.90
75210;DHT22;63796;53.136;14.882;2023-02-02T06:45:53;3.70;99.90
75210;DHT22;63796;53.136;14.882;2023-02-02T06:48:20;3.70;99.90
75210;DHT22;63796;53.136;14.882;2023-02-02T06:50:47;3.60;99.90
75210;DHT22;63796;53.136;14.882;2023-02-02T06:53:15;3.70;99.90
75210;DHT22;63796;53.136;14.882;2023-02-02T06:55:51;3.70;99.90
75210;DHT22;63796;53.136;14.882;2023-02-02T06:58:23;3.70;99.90
75210;DHT22;63796;53.136;14.882;2023-02-02T07:00:50;3.70;99.90
75210;DHT22;63796;53.136;14.882;2023-02-02T07:03:18;3.70;99.90
75210;DHT22;63796;53.136;14.882;2023-02-02T07:05:49;3.80;99.90
75210;DHT22;63796;53.136;14.882;2023-02-02T07:08:16;3.80;99.90
75210;DHT22;63796;53.136;14.882;2023-02-02T07:10:43;3.80;99.90
75210;DHT22;63796;53.136;14.882;2023-02-02T07:13:31;3.80;99.90
75210;DHT22;63796;53.136;14.882;2023-02-02T07:15:58;3.90;99.90
75210;DHT22;63796;53.136;14.882;2023-02-02T07:18:26;3.80;99.90
75210;DHT22;63796;53.136;14.882;2023-02-02T07:20:53;3.90;99.90
75210;DHT22;63796;53.136;14.882;2023-02-02T07:23:20;3.90;99.90
75210;DHT22;63796;53.136;14.882;2023-02-02T07:25:47;4.00;99.90
75210;DHT22;63796;53.136;14.882;2023-02-02T07:28:14;4.00;99.90
75210;DHT22;63796;53.136;14.882;2023-02-02T07:30:43;4.00;99.90
75210;DHT22;63796;53.136;14.882;2023-02-02T07:33:10;3.90;99.90
75210;DHT22;63796;53.136;14.882;2023-02-02T07:35:38;3.90;99.90
75210;DHT22;63796;53.136;14.882;2023-02-02T07:38:05;4.00;99.90
75210;DHT22;63796;53.136;14.882;2023-02-02T07:40:32;3.90;99.90
75210;DHT22;63796;53.136;14.882;2023-02-02T07:43:00;3.90;99.90
75210;DHT22;63796;53.136;14.882;2023-02-02T07:45:28;3.90;99.90
75210;DHT22;63796;53.136;14.882;2023-02-02T07:47:56;4.00;99.90
75210;DHT22;63796;53.136;14.882;2023-02-02T07:50:24;4.10;99.90
75210;DHT22;63796;53.136;14.882;2023-02-02T07:52:52;4.10;99.90
75210;DHT22;63796;53.136;14.882;2023-02-02T07:55:20;4.10;99.90
75210;DHT22;63796;53.136;14.882;2023-02-02T07:57:47;4.00;99.90
75210;DHT22;63796;53.136;14.882;2023-02-02T08:00:19;4.10;99.90
75210;DHT22;63796;53.136;14.882;2023-02-02T08:02:47;4.10;99.90
75210;DHT22;63796;53.136;14.882;2023-02-02T08:05:15;4.10;99.90
75210;DHT22;63796;53.136;14.882;2023-02-02T08:07:42;4.20;99.90
75210;DHT22;63796;53.136;14.882;2023-02-02T08:10:10;4.30;99.90
75210;DHT22;63796;53.136;14.882;2023-02-02T08:12:38;4.30;99.90
75210;DHT22;63796;53.136;14.882;2023-02-02T08:15:05;4.40;99.90
75210;DHT22;63796;53.136;14.882;2023-02-02T08:17:34;4.40;99.90
75210;DHT22;63796;53.136;14.882;2023-02-02T08:20:01;4.40;99.90
75210;DHT22;63796;53.136;14.882;2023-02-02T08:22:28;4.20;99.90
75210;DHT22;63796;53.136;14.882;2023-02-02T08:24:57;4.20;99.90
75210;DHT22;63796;53.136;14.882;2023-02-02T08:27:24;4.30;99.90
75210;DHT22;63796;53.136;14.882;2023-02-02T08:29:51;4.30;99.90
75210;DHT22;63796;53.136;14.882;2023-02-02T08:32:18;4.30;99.90
75210;DHT22;63796;53.136;14.882;2023-02-02T08:34:47;4.30;99.90
75210;DHT22;63796;53.136;14.882;2023-02-02T08:37:20;4.40;99.90
75210;DHT22;63796;53.136;14.882;2023-02-02T08:39:47;4.40;99.90
75210;DHT22;63796;53.136;14.882;2023-02-02T08:42:14;4.50;99.90
75210;DHT22;63796;53.136;14.882;2023-02-02T08:44:41;4.40;99.90
75210;DHT22;63796;53.136;14.882;2023-02-02T08:47:29;4.50;99.90
75210;DHT22;63796;53.136;14.882;2023-02-02T08:49:56;4.50;99.90
75210;DHT22;63796;53.136;14.882;2023-02-02T08:52:23;4.60;99.90
75210;DHT22;63796;53.136;14.882;2023-02-02T08:54:51;4.40;99.90
75210;DHT22;63796;53.136;14.882;2023-02-02T08:57:19;4.40;99.90
75210;DHT22;63796;53.136;14.882;2023-02-02T08:59:46;4.50;99.90
75210;DHT22;63796;53.136;14.882;2023-02-02T09:19:56;4.30;99.90
75210;DHT22;63796;53.136;14.882;2023-02-02T09:22:23;4.70;99.90
75210;DHT22;63796;53.136;14.882;2023-02-02T09:24:54;4.60;99.90
75210;DHT22;63796;53.136;14.882;2023-02-02T09:27:21;4.70;99.90
75210;DHT22;63796;53.136;14.882;2023-02-02T09:29:49;4.90;99.90
75210;DHT22;63796;53.136;14.882;2023-02-02T09:32:17;5.30;99.90
75210;DHT22;63796;53.136;14.882;2023-02-02T09:34:44;5.50;99.90
75210;DHT22;63796;53.136;14.882;2023-02-02T09:37:14;5.40;99.90
75210;DHT22;63796;53.136;14.882;2023-02-02T09:39:41;5.40;99.90
75210;DHT22;63796;53.136;14.882;2023-02-02T09:45:41;4.80;99.90
75210;DHT22;63796;53.136;14.882;2023-02-02T09:48:13;4.90;99.90
75210;DHT22;63796;53.136;14.882;2023-02-02T09:51:02;4.80;99.90
75210;DHT22;63796;53.136;14.882;2023-02-02T09:53:58;4.70;99.90
75210;DHT22;63796;53.136;14.882;2023-02-02T09:56:50;4.80;99.90
75210;DHT22;63796;53.136;14.882;2023-02-02T09:59:25;4.80;99.90
75210;DHT22;63796;53.136;14.882;2023-02-02T10:01:56;4.60;99.90
75210;DHT22;63796;53.136;14.882;2023-02-02T10:07:14;5.60;99.90
75210;DHT22;63796;53.136;14.882;2023-02-02T10:09:47;6.30;99.90
75210;DHT22;63796;53.136;14.882;2023-02-02T10:17:41;6.50;99.90
75210;DHT22;63796;53.136;14.882;2023-02-02T10:23:20;6.70;99.90
75210;DHT22;63796;53.136;14.882;2023-02-02T10:26:01;8.90;99.90
75210;DHT22;63796;53.136;14.882;2023-02-02T10:34:00;14.30;97.80
75210;DHT22;63796;53.136;14.882;2023-02-02T10:39:12;9.00;99.90
75210;DHT22;63796;53.136;14.882;2023-02-02T10:42:05;7.50;99.90
75210;DHT22;63796;53.136;14.882;2023-02-02T10:47:08;6.60;99.90
75210;DHT22;63796;53.136;14.882;2023-02-02T10:49:39;6.40;99.90
75210;DHT22;63796;53.136;14.882;2023-02-02T10:54:50;5.90;99.90
75210;DHT22;63796;53.136;14.882;2023-02-02T11:02:49;5.40;99.90
75210;DHT22;63796;53.136;14.882;2023-02-02T11:05:20;4.90;99.90
75210;DHT22;63796;53.136;14.882;2023-02-02T11:08:10;4.60;99.90
75210;DHT22;63796;53.136;14.882;2023-02-02T11:10:40;4.50;99.90
75210;DHT22;63796;53.136;14.882;2023-02-02T11:13:11;4.60;99.90
75210;DHT22;63796;53.136;14.882;2023-02-02T11:15:43;4.70;99.90
75210;DHT22;63796;53.136;14.882;2023-02-02T11:18:18;4.70;99.90
75210;DHT22;63796;53.136;14.882;2023-02-02T11:20:54;5.10;99.90
75210;DHT22;63796;53.136;14.882;2023-02-02T11:23:22;5.50;99.90
75210;DHT22;63796;53.136;14.882;2023-02-02T11:26:00;5.40;99.90
75210;DHT22;63796;53.136;14.882;2023-02-02T11:28:32;5.30;99.90
75210;DHT22;63796;53.136;14.882;2023-02-02T11:31:01;5.70;99.90
75210;DHT22;63796;53.136;14.882;2023-02-02T11:33:33;5.90;99.90
75210;DHT22;63796;53.136;14.882;2023-02-02T11:38:31;5.90;99.90
75210;DHT22;63796;53.136;14.882;2023-02-02T11:41:05;6.20;99.90
75210;DHT22;63796;53.136;14.882;2023-02-02T11:43:46;6.40;99.90
75210;DHT22;63796;53.136;14.882;2023-02-02T11:46:18;6.60;99.90
75210;DHT22;63796;53.136;14.882;2023-02-02T11:49:04;6.80;99.90
75210;DHT22;63796;53.136;14.882;2023-02-02T11:51:40;6.50;99.90
75210;DHT22;63796;53.136;14.882;2023-02-02T11:54:15;6.30;99.90
75210;DHT22;63796;53.136;14.882;2023-02-02T11:56:49;6.10;99.90
75210;DHT22;63796;53.136;14.882;2023-02-02T12:04:47;5.70;99.90
75210;DHT22;63796;53.136;14.882;2023-02-02T12:07:16;5.50;99.90
75210;DHT22;63796;53.136;14.882;2023-02-02T12:09:46;5.40;99.90
75210;DHT22;63796;53.136;14.882;2023-02-02T12:12:58;5.40;99.90
75210;DHT22;63796;53.136;14.882;2023-02-02T12:18:40;5.30;99.90
75210;DHT22;63796;53.136;14.882;2023-02-02T12:21:42;5.50;99.90
75210;DHT22;63796;53.136;14.882;2023-02-02T12:43:46;5.80;99.90
75210;DHT22;63796;53.136;14.882;2023-02-02T13:06:36;5.50;99.90
75210;DHT22;63796;53.136;14.882;2023-02-02T13:12:07;5.60;99.90
75210;DHT22;63796;53.136;14.882;2023-02-02T13:14:50;5.30;99.90
75210;DHT22;63796;53.136;14.882;2023-02-02T13:17:28;5.30;99.90
75210;DHT22;63796;53.136;14.882;2023-02-02T13:20:00;5.20;99.90
75210;DHT22;63796;53.136;14.882;2023-02-02T13:22:41;5.40;99.90
75210;DHT22;63796;53.136;14.882;2023-02-02T13:25:16;5.60;99.90
75210;DHT22;63796;53.136;14.882;2023-02-02T13:27:47;5.60;99.90
75210;DHT22;63796;53.136;14.882;2023-02-02T13:30:26;5.50;99.90
75210;DHT22;63796;53.136;14.882;2023-02-02T13:33:02;5.40;99.90
75210;DHT22;63796;53.136;14.882;2023-02-02T13:36:25;5.20;99.90
75210;DHT22;63796;53.136;14.882;2023-02-02T13:38:43;5.50;99.90
75210;DHT22;63796;53.136;14.882;2023-02-02T13:41:11;5.80;99.90
75210;DHT22;63796;53.136;14.882;2023-02-02T13:49:24;4.80;99.90
75210;DHT22;63796;53.136;14.882;2023-02-02T13:55:16;4.60;99.90
75210;DHT22;63796;53.136;14.882;2023-02-02T14:00:36;4.80;99.90
75210;DHT22;63796;53.136;14.882;2023-02-02T14:06:05;5.10;99.90
75210;DHT22;63796;53.136;14.882;2023-02-02T14:08:33;5.40;99.90
75210;DHT22;63796;53.136;14.882;2023-02-02T14:11:03;5.30;99.90
75210;DHT22;63796;53.136;14.882;2023-02-02T14:18:59;5.40;99.90
75210;DHT22;63796;53.136;14.882;2023-02-02T14:34:45;5.00;99.90
75210;DHT22;63796;53.136;14.882;2023-02-02T14:45:29;4.90;99.90
75210;DHT22;63796;53.136;14.882;2023-02-02T14:48:01;4.90;99.90
75210;DHT22;63796;53.136;14.882;2023-02-02T14:55:55;4.80;99.90
75210;DHT22;63796;53.136;14.882;2023-02-02T14:58:24;4.60;99.90
75210;DHT22;63796;53.136;14.882;2023-02-02T15:00:56;4.50;99.90
75210;DHT22;63796;53.136;14.882;2023-02-02T15:03:47;4.30;99.90
75210;DHT22;63796;53.136;14.882;2023-02-02T15:09:35;4.30;99.90
75210;DHT22;63796;53.136;14.882;2023-02-02T15:25:30;3.70;99.90
75210;DHT22;63796;53.136;14.882;2023-02-02T15:31:31;3.40;99.90
75210;DHT22;63796;53.136;14.882;2023-02-02T15:34:26;3.40;99.90
75210;DHT22;63796;53.136;14.882;2023-02-02T15:36:51;3.40;99.90
75210;DHT22;63796;53.136;14.882;2023-02-02T15:42:01;3.30;99.90
75210;DHT22;63796;53.136;14.882;2023-02-02T15:44:51;3.30;99.90
75210;DHT22;63796;53.136;14.882;2023-02-02T15:47:19;3.30;99.90
75210;DHT22;63796;53.136;14.882;2023-02-02T15:49:54;3.10;99.90
75210;DHT22;63796;53.136;14.882;2023-02-02T15:52:23;3.10;99.90
75210;DHT22;63796;53.136;14.882;2023-02-02T15:54:55;3.10;99.90
75210;DHT22;63796;53.136;14.882;2023-02-02T16:02:48;3.00;99.90
75210;DHT22;63796;53.136;14.882;2023-02-02T16:05:22;2.90;99.90
75210;DHT22;63796;53.136;14.882;2023-02-02T16:07:50;2.80;99.90
75210;DHT22;63796;53.136;14.882;2023-02-02T16:10:30;2.70;99.90
75210;DHT22;63796;53.136;14.882;2023-02-02T16:12:59;2.70;99.90
75210;DHT22;63796;53.136;14.882;2023-02-02T16:15:27;2.70;99.90
75210;DHT22;63796;53.136;14.882;2023-02-02T16:18:02;2.70;99.90
75210;DHT22;63796;53.136;14.882;2023-02-02T16:21:24;2.70;99.90
75210;DHT22;63796;53.136;14.882;2023-02-02T16:23:52;2.60;99.90
75210;DHT22;63796;53.136;14.882;2023-02-02T16:26:21;2.60;99.90
75210;DHT22;63796;53.136;14.882;2023-02-02T16:28:53;2.50;99.90
75210;DHT22;63796;53.136;14.882;2023-02-02T16:31:21;2.40;99.90
75210;DHT22;63796;53.136;14.882;2023-02-02T16:33:49;2.40;99.90
75210;DHT22;63796;53.136;14.882;2023-02-02T16:38:52;2.40;99.90
75210;DHT22;63796;53.136;14.882;2023-02-02T16:41:30;2.30;99.90
75210;DHT22;63796;53.136;14.882;2023-02-02T16:46:56;2.20;99.90
75210;DHT22;63796;53.136;14.882;2023-02-02T16:49:24;2.20;99.90
75210;DHT22;63796;53.136;14.882;2023-02-02T16:54:50;2.10;99.90
75210;DHT22;63796;53.136;14.882;2023-02-02T16:57:30;2.00;99.90
75210;DHT22;63796;53.136;14.882;2023-02-02T17:00:04;2.00;99.90
75210;DHT22;63796;53.136;14.882;2023-02-02T17:02:37;2.00;99.90
75210;DHT22;63796;53.136;14.882;2023-02-02T17:05:21;2.00;99.90
75210;DHT22;63796;53.136;14.882;2023-02-02T17:07:55;2.10;99.90
75210;DHT22;63796;53.136;14.882;2023-02-02T17:10:27;2.10;99.90
75210;DHT22;63796;53.136;14.882;2023-02-02T17:15:57;2.10;99.90
75210;DHT22;63796;53.136;14.882;2023-02-02T17:18:26;2.10;99.90
75210;DHT22;63796;53.136;14.882;2023-02-02T17:20:54;2.10;99.90
75210;DHT22;63796;53.136;14.882;2023-02-02T17:23:24;2.10;99.90
75210;DHT22;63796;53.136;14.882;2023-02-02T17:25:53;2.10;99.90
75210;DHT22;63796;53.136;14.882;2023-02-02T17:28:22;2.10;99.90
75210;DHT22;63796;53.136;14.882;2023-02-02T17:30:55;2.00;99.90
75210;DHT22;63796;53.136;14.882;2023-02-02T17:33:24;2.00;99.90
75210;DHT22;63796;53.136;14.882;2023-02-02T17:35:52;2.00;99.90
75210;DHT22;63796;53.136;14.882;2023-02-02T17:38:22;2.00;99.90
75210;DHT22;63796;53.136;14.882;2023-02-02T17:40:52;2.10;99.90
75210;DHT22;63796;53.136;14.882;2023-02-02T17:43:20;2.00;99.90
75210;DHT22;63796;53.136;14.882;2023-02-02T17:45:48;2.00;99.90
75210;DHT22;63796;53.136;14.882;2023-02-02T17:48:16;2.00;99.90
75210;DHT22;63796;53.136;14.882;2023-02-02T17:50:43;1.80;99.90
75210;DHT22;63796;53.136;14.882;2023-02-02T17:53:15;1.70;99.90
75210;DHT22;63796;53.136;14.882;2023-02-02T17:55:47;1.70;99.90
75210;DHT22;63796;53.136;14.882;2023-02-02T17:58:15;1.70;99.90
75210;DHT22;63796;53.136;14.882;2023-02-02T18:00:48;1.70;99.90
75210;DHT22;63796;53.136;14.882;2023-02-02T18:05:47;1.60;99.90
75210;DHT22;63796;53.136;14.882;2023-02-02T18:08:14;1.70;99.90
75210;DHT22;63796;53.136;14.882;2023-02-02T18:10:42;1.70;99.90
75210;DHT22;63796;53.136;14.882;2023-02-02T18:13:13;1.70;99.90
75210;DHT22;63796;53.136;14.882;2023-02-02T18:15:42;1.60;99.90
75210;DHT22;63796;53.136;14.882;2023-02-02T18:18:10;1.60;99.90
75210;DHT22;63796;53.136;14.882;2023-02-02T18:20:45;1.60;99.90
75210;DHT22;63796;53.136;14.882;2023-02-02T18:23:14;1.60;99.90
75210;DHT22;63796;53.136;14.882;2023-02-02T18:25:42;1.60;99.90
75210;DHT22;63796;53.136;14.882;2023-02-02T18:28:10;1.60;99.90
75210;DHT22;63796;53.136;14.882;2023-02-02T18:30:42;1.50;99.90
75210;DHT22;63796;53.136;14.882;2023-02-02T18:33:10;1.50;99.90
75210;DHT22;63796;53.136;14.882;2023-02-02T18:35:42;1.60;99.90
75210;DHT22;63796;53.136;14.882;2023-02-02T18:38:10;1.60;99.90
75210;DHT22;63796;53.136;14.882;2023-02-02T18:40:38;1.60;99.90
75210;DHT22;63796;53.136;14.882;2023-02-02T18:43:06;1.60;99.90
75210;DHT22;63796;53.136;14.882;2023-02-02T18:45:33;1.60;99.90
75210;DHT22;63796;53.136;14.882;2023-02-02T18:48:01;1.60;99.90
75210;DHT22;63796;53.136;14.882;2023-02-02T18:50:29;1.50;99.90
75210;DHT22;63796;53.136;14.882;2023-02-02T18:52:56;1.50;99.90
75210;DHT22;63796;53.136;14.882;2023-02-02T18:55:24;1.50;99.90
75210;DHT22;63796;53.136;14.882;2023-02-02T18:57:52;1.50;99.90
75210;DHT22;63796;53.136;14.882;2023-02-02T19:00:19;1.50;99.90
75210;DHT22;63796;53.136;14.882;2023-02-02T19:02:47;1.40;99.90
75210;DHT22;63796;53.136;14.882;2023-02-02T19:05:15;1.40;99.90
75210;DHT22;63796;53.136;14.882;2023-02-02T19:08:01;1.40;99.90
75210;DHT22;63796;53.136;14.882;2023-02-02T19:10:32;1.30;99.90
75210;DHT22;63796;53.136;14.882;2023-02-02T19:13:16;1.30;99.90
75210;DHT22;63796;53.136;14.882;2023-02-02T19:15:46;1.30;99.90
75210;DHT22;63796;53.136;14.882;2023-02-02T19:18:16;1.20;99.90
75210;DHT22;63796;53.136;14.882;2023-02-02T19:20:46;1.20;99.90
75210;DHT22;63796;53.136;14.882;2023-02-02T19:23:15;1.20;99.90
75210;DHT22;63796;53.136;14.882;2023-02-02T19:25:45;1.20;99.90
75210;DHT22;63796;53.136;14.882;2023-02-02T19:28:24;1.30;99.90
75210;DHT22;63796;53.136;14.882;2023-02-02T19:30:58;1.20;99.90
75210;DHT22;63796;53.136;14.882;2023-02-02T19:33:38;1.20;99.90
75210;DHT22;63796;53.136;14.882;2023-02-02T19:36:15;1.20;99.90
75210;DHT22;63796;53.136;14.882;2023-02-02T19:38:45;1.20;99.90
75210;DHT22;63796;53.136;14.882;2023-02-02T19:41:18;1.20;99.90
75210;DHT22;63796;53.136;14.882;2023-02-02T19:44:05;1.10;99.90
75210;DHT22;63796;53.136;14.882;2023-02-02T19:46:41;1.10;99.90